Time;durP1;ratioP1;P1;durP2;ratioP2;P2;SDS_P1;SDS_P2;PMS_P1;PMS_P2;Temp;Humidity;BMP_temperature;BMP_pressure;BME280_temperature;BME280_humidity;BME280_pressure;Samples;Min_cycle;Max_cycle;Signal;HPM_P1;HPM_P2
2021/10/27 00:00:53;;;;;;;5.57;4.25;;;;;;;9.58;71.47;101505.84;5033796;28;20025;-42
2021/10/27 00:03:18;;;;;;;4.88;4.25;;;;;;;9.59;71.48;101498.81;5033729;28;20036;-42
2021/10/27 00:05:44;;;;;;;4.63;4.20;;;;;;;9.58;71.34;101495.31;5029789;28;20053;-42
2021/10/27 00:08:09;;;;;;;4.30;3.90;;;;;;;9.58;71.25;101503.22;5031218;28;20030;-42
2021/10/27 00:10:34;;;;;;;4.43;4.03;;;;;;;9.59;71.32;101493.53;5033235;28;20092;-42
2021/10/27 00:13:00;;;;;;;4.93;4.47;;;;;;;9.58;71.48;101495.31;5033287;28;20029;-42
2021/10/27 00:15:25;;;;;;;4.65;4.10;;;;;;;9.58;71.29;101492.66;5033033;28;20096;-42
2021/10/27 00:17:51;;;;;;;4.68;3.58;;;;;;;9.58;71.37;101497.03;5032436;28;20113;-42
2021/10/27 00:20:16;;;;;;;4.25;3.85;;;;;;;9.58;71.46;101499.69;5032594;28;20456;-42
2021/10/27 00:22:41;;;;;;;4.35;3.95;;;;;;;9.56;71.38;101504.94;5031861;28;20653;-42
2021/10/27 00:25:07;;;;;;;4.50;4.10;;;;;;;9.58;71.44;101503.22;5032960;28;20032;-42
2021/10/27 00:27:33;;;;;;;6.07;4.07;;;;;;;9.56;71.63;101515.47;5016384;28;20034;-42
2021/10/27 00:29:59;;;;;;;5.72;4.32;;;;;;;9.57;71.32;101514.59;5013872;28;20041;-42
2021/10/27 00:32:24;;;;;;;4.38;3.97;;;;;;;9.56;71.46;101523.38;5013420;28;20478;-42
2021/10/27 00:34:49;;;;;;;4.28;3.88;;;;;;;9.57;71.40;101522.50;5021581;28;20069;-42
2021/10/27 00:37:15;;;;;;;5.00;4.38;;;;;;;9.57;71.33;101527.75;5033006;28;20029;-43
2021/10/27 00:39:40;;;;;;;4.80;4.40;;;;;;;9.58;71.24;101528.66;5032728;28;20095;-42
2021/10/27 00:42:06;;;;;;;4.65;4.13;;;;;;;9.56;71.33;101523.38;5031624;28;20108;-43
2021/10/27 00:44:32;;;;;;;4.30;3.75;;;;;;;9.56;71.21;101531.25;5032765;28;20060;-43
2021/10/27 00:47:03;;;;;;;5.72;4.25;;;;;;;9.55;71.43;101532.16;5031672;28;20083;-42
2021/10/27 00:49:29;;;;;;;4.97;4.05;;;;;;;9.56;71.26;101528.63;5032705;28;20474;-42
2021/10/27 00:51:55;;;;;;;4.35;3.95;;;;;;;9.57;71.20;101532.16;5032680;28;20042;-42
2021/10/27 00:54:22;;;;;;;4.63;3.80;;;;;;;9.56;71.14;101528.63;5032348;28;20052;-43
2021/10/27 00:56:47;;;;;;;4.82;4.10;;;;;;;9.55;71.33;101529.50;5031140;28;20088;-43
2021/10/27 00:59:13;;;;;;;4.32;3.88;;;;;;;9.55;71.46;101532.16;5031814;28;20428;-43
2021/10/27 01:01:39;;;;;;;4.35;3.88;;;;;;;9.55;71.37;101529.50;5031524;28;20447;-43
2021/10/27 01:04:04;;;;;;;4.03;3.60;;;;;;;9.55;71.55;101532.16;5015590;28;20026;-43
2021/10/27 01:06:30;;;;;;;5.22;3.88;;;;;;;9.55;71.34;101528.63;5031920;28;20071;-43
2021/10/27 01:08:56;;;;;;;4.70;4.22;;;;;;;9.54;71.34;101522.44;5032475;28;20026;-42
2021/10/27 01:11:21;;;;;;;6.13;4.05;;;;;;;9.54;71.29;101517.19;5031531;28;20021;-42
2021/10/27 01:13:47;;;;;;;4.40;4.00;;;;;;;9.54;71.20;101518.97;5029880;28;20394;-42
2021/10/27 01:16:12;;;;;;;4.50;4.05;;;;;;;9.53;71.33;101523.34;5016921;28;20057;-42
2021/10/27 01:18:38;;;;;;;4.03;3.72;;;;;;;9.54;71.17;101517.19;5011539;28;20026;-42
2021/10/27 01:21:03;;;;;;;6.18;4.28;;;;;;;9.54;71.27;101517.19;5032456;28;20033;-42
2021/10/27 01:23:28;;;;;;;4.70;4.30;;;;;;;9.54;70.98;101511.06;5039481;28;20101;-42
2021/10/27 01:25:58;;;;;;;5.40;4.32;;;;;;;9.53;71.32;101509.31;5027382;28;20021;-42
2021/10/27 01:28:23;;;;;;;4.88;3.65;;;;;;;9.54;71.32;101509.28;5039849;28;20500;-42
2021/10/27 01:30:51;;;;;;;4.35;3.95;;;;;;;9.54;71.37;101511.06;5032145;28;20056;-42
2021/10/27 01:33:16;;;;;;;5.07;4.55;;;;;;;9.52;71.17;101511.03;5031866;28;20104;-42
2021/10/27 01:35:41;;;;;;;5.03;4.53;;;;;;;9.53;71.42;101504.91;5041830;28;20108;-42
2021/10/27 01:38:07;;;;;;;4.72;3.97;;;;;;;9.51;71.12;101509.28;5033683;28;20116;-42
2021/10/27 01:40:33;;;;;;;4.35;3.90;;;;;;;9.52;71.36;101516.31;5032530;28;20068;-42
2021/10/27 01:42:58;;;;;;;4.18;3.75;;;;;;;9.52;71.43;101512.78;5030520;28;20036;-42
2021/10/27 01:45:28;;;;;;;5.47;4.20;;;;;;;9.51;71.48;101506.66;5031900;28;20024;-42
2021/10/27 01:47:54;;;;;;;4.97;4.00;;;;;;;9.51;71.32;101509.28;5031779;28;20537;-42
2021/10/27 01:50:19;;;;;;;4.75;4.00;;;;;;;9.50;71.25;101504.88;5032815;28;20087;-42
2021/10/27 01:52:44;;;;;;;4.82;3.90;;;;;;;9.51;71.27;101501.38;5030448;28;20014;-42
2021/10/27 01:55:10;;;;;;;4.78;3.85;;;;;;;9.51;71.22;101506.66;5017692;28;20029;-42
2021/10/27 01:57:35;;;;;;;4.57;3.65;;;;;;;9.50;71.40;101504.88;5023448;28;20026;-42
2021/10/27 02:00:01;;;;;;;5.05;4.55;;;;;;;9.50;71.41;101504.88;5030441;28;20493;-43
2021/10/27 02:02:26;;;;;;;5.53;3.80;;;;;;;9.50;71.26;101510.13;5020616;28;20083;-41
2021/10/27 02:04:52;;;;;;;4.15;3.75;;;;;;;9.50;71.34;101507.50;5031567;28;20033;-42
2021/10/27 02:07:17;;;;;;;4.43;4.03;;;;;;;9.49;71.14;101501.38;5031862;28;20032;-42
2021/10/27 02:09:42;;;;;;;4.53;3.97;;;;;;;9.50;71.10;101504.88;5048077;28;20032;-42
2021/10/27 02:12:08;;;;;;;3.83;3.42;;;;;;;9.49;71.22;101493.47;5040209;28;20034;-42
2021/10/27 02:14:34;;;;;;;5.65;4.05;;;;;;;9.49;71.34;101500.47;5029980;28;20485;-43
2021/10/27 02:17:00;;;;;;;4.15;3.55;;;;;;;9.50;71.03;101496.97;5030047;28;20036;-42
2021/10/27 02:19:25;;;;;;;5.25;4.32;;;;;;;9.48;71.14;101491.69;5031070;28;20053;-42
2021/10/27 02:21:50;;;;;;;3.55;3.22;;;;;;;9.50;71.50;101491.69;5030373;28;20022;-42
2021/10/27 02:24:16;;;;;;;5.18;4.05;;;;;;;9.48;71.09;101486.41;5031071;28;20032;-43
2021/10/27 02:26:42;;;;;;;4.75;3.85;;;;;;;9.49;71.26;101492.56;5029905;28;20040;-43
2021/10/27 02:29:07;;;;;;;4.40;3.80;;;;;;;9.47;71.21;101489.94;5030893;28;20021;-42
2021/10/27 02:31:32;;;;;;;3.97;3.65;;;;;;;9.49;71.20;101495.22;5033521;28;20064;-42
2021/10/27 02:33:58;;;;;;;5.47;4.07;;;;;;;9.47;71.38;101494.34;5030113;28;20384;-42
2021/10/27 02:36:23;;;;;;;3.95;3.53;;;;;;;9.46;71.20;101500.44;5031011;28;20029;-42
2021/10/27 02:38:48;;;;;;;4.22;3.83;;;;;;;9.47;71.27;101499.59;5029982;28;20068;-42
2021/10/27 02:41:14;;;;;;;4.30;3.90;;;;;;;9.47;71.23;101504.88;5031451;28;20108;-41
2021/10/27 02:43:40;;;;;;;8.00;4.22;;;;;;;9.45;71.46;101498.69;5039100;28;20021;-42
2021/10/27 02:46:05;;;;;;;4.30;3.90;;;;;;;9.47;71.16;101499.59;5040746;28;20370;-42
2021/10/27 02:48:31;;;;;;;4.40;3.40;;;;;;;9.48;71.31;101506.63;5020521;28;20033;-42
2021/10/27 02:50:56;;;;;;;4.25;3.83;;;;;;;9.46;71.18;101513.59;5040910;28;20029;-42
2021/10/27 02:53:21;;;;;;;4.15;3.75;;;;;;;9.47;71.28;101512.75;5028939;28;20052;-42
2021/10/27 02:55:47;;;;;;;5.10;3.92;;;;;;;9.45;71.14;101514.50;5024670;28;20509;-42
2021/10/27 02:58:12;;;;;;;7.38;3.72;;;;;;;9.44;71.30;101512.72;5038123;28;20030;-42
2021/10/27 03:00:37;;;;;;;3.97;3.58;;;;;;;9.45;71.20;101517.13;5032735;28;20041;-43
2021/10/27 03:03:03;;;;;;;5.40;4.15;;;;;;;9.42;71.26;101520.63;5042197;28;20021;-42
2021/10/27 03:05:29;;;;;;;3.97;3.58;;;;;;;9.43;71.48;101526.75;5049597;28;20068;-42
2021/10/27 03:07:55;;;;;;;4.30;3.90;;;;;;;9.43;71.19;101535.53;5049993;28;20022;-42
2021/10/27 03:10:20;;;;;;;4.35;3.95;;;;;;;9.43;71.42;101534.63;5033594;28;20032;-42
2021/10/27 03:12:46;;;;;;;4.00;3.58;;;;;;;9.43;71.28;101540.81;5042459;28;20022;-43
2021/10/27 03:15:11;;;;;;;4.03;3.63;;;;;;;9.44;70.98;101542.56;5035308;28;20112;-42
2021/10/27 03:17:37;;;;;;;4.03;3.63;;;;;;;9.43;71.06;101546.06;5038219;28;20025;-43
2021/10/27 03:20:03;;;;;;;4.68;4.00;;;;;;;9.43;71.22;101542.53;5022713;28;20032;-43
2021/10/27 03:22:28;;;;;;;4.10;3.72;;;;;;;9.42;71.09;101546.94;5022987;28;20018;-43
2021/10/27 03:24:54;;;;;;;5.25;4.13;;;;;;;9.41;71.17;101542.56;5026339;28;20040;-43
2021/10/27 03:27:19;;;;;;;4.53;4.10;;;;;;;9.41;71.07;101552.19;5046711;28;20029;-42
2021/10/27 03:29:44;;;;;;;4.20;3.80;;;;;;;9.41;71.08;101552.19;5037410;28;20033;-42
2021/10/27 03:32:13;;;;;;;4.20;3.80;;;;;;;9.41;71.00;101546.94;5040605;28;20021;-42
2021/10/27 03:34:38;;;;;;;3.70;3.40;;;;;;;9.40;71.19;101553.06;5017249;28;20424;-42
2021/10/27 03:37:04;;;;;;;4.03;3.60;;;;;;;9.39;71.07;101560.06;5029423;28;20017;-42
2021/10/27 03:39:30;;;;;;;5.05;4.40;;;;;;;9.41;71.15;101562.72;5032926;28;20656;-42
2021/10/27 03:41:55;;;;;;;4.85;4.38;;;;;;;9.41;71.24;101565.34;5033292;28;20025;-42
2021/10/27 03:44:20;;;;;;;4.03;3.53;;;;;;;9.39;71.22;101560.06;5033592;28;20033;-41
2021/10/27 03:46:46;;;;;;;4.70;4.30;;;;;;;9.37;71.21;101567.94;5034087;28;20057;-41
2021/10/27 03:49:11;;;;;;;4.85;4.10;;;;;;;9.40;71.25;101566.22;5033774;28;20544;-41
2021/10/27 03:51:37;;;;;;;3.78;3.38;;;;;;;9.40;71.10;101556.56;5033843;28;20128;-41
2021/10/27 03:54:02;;;;;;;5.32;4.13;;;;;;;9.39;71.21;101564.44;5032771;28;20425;-41
2021/10/27 03:56:28;;;;;;;4.28;3.97;;;;;;;9.40;71.12;101561.81;5034010;28;20029;-41
2021/10/27 03:58:53;;;;;;;4.10;3.65;;;;;;;9.39;71.17;101561.81;5033951;28;20026;-42
2021/10/27 04:01:18;;;;;;;4.13;3.72;;;;;;;9.37;70.98;101557.41;5034009;28;20029;-41
2021/10/27 04:03:44;;;;;;;4.40;3.42;;;;;;;9.39;70.97;101559.19;5034420;28;20466;-42
2021/10/27 04:06:09;;;;;;;4.03;3.65;;;;;;;9.39;71.11;101559.19;5032479;28;20040;-42
2021/10/27 04:08:35;;;;;;;4.35;3.92;;;;;;;9.37;71.00;101551.25;5034283;28;20052;-42
2021/10/27 04:11:00;;;;;;;3.83;3.50;;;;;;;9.37;71.21;101552.16;5034457;28;20095;-42
2021/10/27 04:13:25;;;;;;;3.60;3.30;;;;;;;9.36;71.24;101555.66;5034193;28;20025;-41
2021/10/27 04:15:51;;;;;;;3.58;3.28;;;;;;;9.37;71.33;101556.53;5033758;28;20064;-41
2021/10/27 04:18:17;;;;;;;4.15;3.75;;;;;;;9.36;71.34;101545.13;5034438;28;20025;-42
2021/10/27 04:20:42;;;;;;;4.60;4.00;;;;;;;9.37;71.28;101546.00;5032644;28;20022;-42
2021/10/27 04:23:08;;;;;;;4.05;3.65;;;;;;;9.37;71.23;101557.41;5033512;28;20028;-41
2021/10/27 04:25:34;;;;;;;3.58;3.28;;;;;;;9.36;71.34;101560.94;5034100;28;20100;-41
2021/10/27 04:27:59;;;;;;;5.43;4.28;;;;;;;9.37;71.49;101567.06;5034189;28;20029;-42
2021/10/27 04:30:25;;;;;;;4.15;3.40;;;;;;;9.36;71.30;101563.56;5032589;28;20044;-41
2021/10/27 04:32:51;;;;;;;3.65;3.35;;;;;;;9.36;71.42;101568.81;5033864;28;20416;-43
2021/10/27 04:35:16;;;;;;;3.75;3.42;;;;;;;9.36;71.50;101566.19;5032361;28;20416;-41
2021/10/27 04:37:44;;;;;;;4.00;3.67;;;;;;;9.36;71.26;101576.72;5033058;28;20112;-41
2021/10/27 04:40:15;;;;;;;5.07;3.38;;;;;;;9.37;71.37;101572.31;5033470;28;20029;-42
2021/10/27 04:42:41;;;;;;;3.85;3.45;;;;;;;9.35;71.38;101574.97;5032594;28;20048;-42
2021/10/27 04:45:07;;;;;;;5.90;3.85;;;;;;;9.36;71.32;101570.56;5033109;28;20080;-41
2021/10/27 04:47:33;;;;;;;4.20;3.85;;;;;;;9.34;71.10;101577.59;5033519;28;20056;-41
2021/10/27 04:49:58;;;;;;;3.60;3.17;;;;;;;9.34;71.33;101578.44;5032874;28;20118;-42
2021/10/27 04:52:24;;;;;;;4.13;3.35;;;;;;;9.34;71.23;101583.72;5031304;28;20040;-42
2021/10/27 04:54:50;;;;;;;3.50;3.20;;;;;;;9.34;71.17;101591.59;5032726;28;20112;-42
2021/10/27 04:57:16;;;;;;;3.72;3.30;;;;;;;9.34;71.43;101588.97;5032659;28;20097;-42
2021/10/27 04:59:44;;;;;;;4.03;3.50;;;;;;;9.35;71.33;101587.25;5031082;28;20629;-41
2021/10/27 05:02:11;;;;;;;3.72;3.33;;;;;;;9.34;71.32;101583.72;5032719;28;20087;-42
2021/10/27 05:04:36;;;;;;;3.80;3.30;;;;;;;9.33;71.40;101581.94;5032524;28;20049;-43
2021/10/27 05:07:03;;;;;;;5.25;3.47;;;;;;;9.33;71.41;101588.97;5031710;28;20492;-42
2021/10/27 05:09:28;;;;;;;3.72;3.42;;;;;;;9.34;71.19;101591.59;5032357;28;20108;-42
2021/10/27 05:11:54;;;;;;;4.00;3.42;;;;;;;9.33;71.17;101591.59;5030909;28;20104;-42
2021/10/27 05:14:19;;;;;;;3.53;3.22;;;;;;;9.32;71.33;101593.34;5032528;28;20469;-42
2021/10/27 05:16:45;;;;;;;4.63;3.28;;;;;;;9.34;71.27;101583.72;5030581;28;20030;-42
2021/10/27 05:19:10;;;;;;;4.10;3.10;;;;;;;9.34;71.22;101586.34;5031008;28;20104;-42
2021/10/27 05:21:35;;;;;;;3.97;3.55;;;;;;;9.34;71.18;101588.97;5031103;28;20030;-42
2021/10/27 05:24:00;;;;;;;3.75;3.17;;;;;;;9.30;71.39;101581.91;5032050;28;20459;-42
2021/10/27 05:26:26;;;;;;;3.15;2.85;;;;;;;9.32;71.35;101598.63;5032046;28;20029;-42
2021/10/27 05:28:51;;;;;;;3.67;3.17;;;;;;;9.32;71.39;101596.00;5032351;28;20040;-42
2021/10/27 05:31:16;;;;;;;3.78;3.47;;;;;;;9.32;71.29;101584.56;5031740;28;20036;-42
2021/10/27 05:33:42;;;;;;;3.08;2.83;;;;;;;9.31;71.31;101596.84;5031546;28;20026;-42
2021/10/27 05:36:07;;;;;;;3.40;3.10;;;;;;;9.31;71.48;101594.19;5031988;28;20029;-43
2021/10/27 05:38:33;;;;;;;4.07;3.67;;;;;;;9.30;71.48;101595.06;5032884;28;20026;-42
2021/10/27 05:40:58;;;;;;;3.75;3.42;;;;;;;9.31;71.23;101594.19;5033020;28;20045;-41
2021/10/27 05:43:25;;;;;;;3.80;3.45;;;;;;;9.31;71.91;101591.56;5032938;28;20397;-42
2021/10/27 05:45:53;;;;;;;3.53;3.05;;;;;;;9.32;71.48;101595.09;5032536;28;20029;-41
2021/10/27 05:48:19;;;;;;;3.78;3.38;;;;;;;9.31;71.42;101594.19;5032639;28;20037;-41
2021/10/27 05:50:57;;;;;;;3.55;3.25;;;;;;;9.32;71.45;101601.25;5031430;28;20025;-42
2021/10/27 05:56:06;;;;;;;3.63;3.33;;;;;;;9.29;71.53;101595.06;5032475;28;20039;-44
2021/10/27 05:58:31;;;;;;;3.65;3.00;;;;;;;9.29;71.53;101589.78;5032314;28;20112;-42
2021/10/27 06:00:58;;;;;;;3.70;3.38;;;;;;;9.31;71.39;101598.59;5014834;28;20029;-42
2021/10/27 06:03:23;;;;;;;3.55;3.25;;;;;;;9.31;71.52;101588.06;5030968;28;20032;-42
2021/10/27 06:05:48;;;;;;;4.88;3.10;;;;;;;9.29;71.51;101593.31;5032193;28;20029;-42
2021/10/27 06:08:15;;;;;;;3.65;3.22;;;;;;;9.28;71.49;101599.47;5031515;28;20025;-42
2021/10/27 06:10:41;;;;;;;3.65;3.20;;;;;;;9.30;71.44;101596.84;5031617;28;20117;-41
2021/10/27 06:13:09;;;;;;;4.10;3.20;;;;;;;9.30;71.59;101605.59;5010368;28;20517;-42
2021/10/27 06:15:35;;;;;;;3.22;2.92;;;;;;;9.29;71.67;101590.69;5027042;28;20397;-42
2021/10/27 06:18:01;;;;;;;3.33;2.97;;;;;;;9.31;71.55;101582.81;5030968;28;20469;-42
2021/10/27 06:20:28;;;;;;;4.25;3.40;;;;;;;9.31;71.64;101593.34;5029568;28;20439;-43
2021/10/27 06:22:53;;;;;;;4.15;3.80;;;;;;;9.30;71.63;101595.06;5030846;28;20017;-42
2021/10/27 06:25:18;;;;;;;4.43;3.55;;;;;;;9.29;71.66;101603.84;5028905;28;20025;-42
2021/10/27 06:27:50;;;;;;;4.03;3.72;;;;;;;9.29;71.51;101593.31;5033071;28;20144;-42
2021/10/27 06:30:23;;;;;;;4.10;3.80;;;;;;;9.28;71.63;101602.09;5031186;28;20039;-41
2021/10/27 06:33:04;;;;;;;3.63;3.33;;;;;;;9.29;71.73;101609.13;5031475;28;20148;-41
2021/10/27 06:35:34;;;;;;;3.53;3.22;;;;;;;9.28;71.81;101599.47;5029934;28;20036;-41
2021/10/27 06:38:29;;;;;;;4.13;3.72;;;;;;;9.30;71.65;101608.25;5031996;28;20112;-41
2021/10/27 06:48:47;;;;;;;4.32;3.92;;;;;;;9.27;71.77;101621.38;5031587;28;20029;-42
2021/10/27 06:51:13;;;;;;;4.00;3.58;;;;;;;9.29;71.79;101627.53;5029621;28;20121;-42
2021/10/27 06:53:38;;;;;;;4.78;3.58;;;;;;;9.29;71.70;101627.53;5030812;28;20120;-41
2021/10/27 06:56:10;;;;;;;4.32;3.92;;;;;;;9.29;71.89;101627.53;5030306;28;20025;-42
2021/10/27 06:58:43;;;;;;;3.88;3.38;;;;;;;9.28;71.62;101633.69;5029361;28;20022;-42
2021/10/27 07:01:13;;;;;;;5.43;3.97;;;;;;;9.29;71.76;101642.44;5031265;28;20029;-42
2021/10/27 07:06:45;;;;;;;4.22;3.78;;;;;;;9.27;71.89;101655.59;5029958;28;20071;-42
2021/10/27 07:15:01;;;;;;;4.65;3.55;;;;;;;9.29;71.90;101666.13;5030900;28;20029;-42
2021/10/27 07:17:27;;;;;;;6.85;3.65;;;;;;;9.29;71.93;101668.78;5031333;28;20026;-42
2021/10/27 07:19:52;;;;;;;3.65;3.35;;;;;;;9.26;72.21;101663.47;5029458;28;20033;-42
2021/10/27 07:22:18;;;;;;;7.07;3.63;;;;;;;9.27;72.17;101671.38;5013247;28;20044;-42
2021/10/27 07:24:44;;;;;;;4.32;3.85;;;;;;;9.30;72.41;101684.59;5030842;28;20492;-42
2021/10/27 07:27:11;;;;;;;4.10;3.63;;;;;;;9.27;72.08;101681.91;5030976;28;20057;-42
2021/10/27 07:29:37;;;;;;;4.25;3.85;;;;;;;9.27;72.28;101683.69;5031622;28;20132;-42
2021/10/27 07:32:05;;;;;;;4.93;3.92;;;;;;;9.29;72.33;101696.00;5033871;28;20048;-42
2021/10/27 07:34:34;;;;;;;5.75;4.15;;;;;;;9.28;72.41;101688.97;5034242;28;20056;-42
2021/10/27 07:42:21;;;;;;;4.15;3.55;;;;;;;9.29;72.27;101689.81;5014467;28;20388;-42
2021/10/27 07:44:46;;;;;;;5.10;3.60;;;;;;;9.28;72.20;101683.69;5013107;28;20032;-42
2021/10/27 07:47:13;;;;;;;4.95;4.45;;;;;;;9.29;72.17;101688.09;5033767;28;20021;-42
2021/10/27 07:49:39;;;;;;;4.32;3.47;;;;;;;9.26;72.21;101680.16;5033833;28;20041;-42
2021/10/27 07:52:05;;;;;;;3.92;3.53;;;;;;;9.28;72.16;101688.06;5033821;28;20112;-42
2021/10/27 07:54:30;;;;;;;4.30;3.90;;;;;;;9.27;72.57;101695.06;5033564;28;20573;-42
2021/10/27 07:56:56;;;;;;;4.18;3.55;;;;;;;9.29;72.36;101697.72;5033693;28;20112;-42
2021/10/27 07:59:21;;;;;;;3.92;3.53;;;;;;;9.28;72.48;101696.88;5033777;28;20461;-42
2021/10/27 08:01:47;;;;;;;5.25;3.70;;;;;;;9.29;72.38;101696.00;5033750;28;20113;-42
2021/10/27 08:04:12;;;;;;;5.50;4.05;;;;;;;9.29;72.36;101696.00;5033314;28;20104;-42
2021/10/27 08:06:37;;;;;;;4.10;3.63;;;;;;;9.29;72.38;101696.00;5033020;28;20032;-42
2021/10/27 08:09:03;;;;;;;4.68;3.40;;;;;;;9.29;72.31;101701.25;5033299;28;20104;-42
2021/10/27 08:11:28;;;;;;;3.85;3.40;;;;;;;9.30;72.68;101702.16;5026638;28;20033;-42
2021/10/27 08:13:54;;;;;;;3.95;3.58;;;;;;;9.29;72.62;101695.09;5016646;28;20033;-42
2021/10/27 08:16:19;;;;;;;4.53;4.13;;;;;;;9.29;72.62;101690.72;5029514;28;20037;-42
2021/10/27 08:18:45;;;;;;;5.60;3.92;;;;;;;9.30;72.58;101696.88;5029991;28;20443;-42
2021/10/27 08:21:10;;;;;;;5.00;3.65;;;;;;;9.30;72.50;101692.50;5033171;28;20034;-42
2021/10/27 08:23:39;;;;;;;4.97;4.07;;;;;;;9.30;72.58;101692.50;5031853;28;20018;-42
2021/10/27 08:26:08;;;;;;;4.07;3.08;;;;;;;9.29;72.42;101693.34;5032929;28;20032;-42
2021/10/27 08:28:38;;;;;;;4.90;4.13;;;;;;;9.31;72.69;101699.50;5028430;28;20030;-42
2021/10/27 08:31:19;;;;;;;4.85;3.80;;;;;;;9.30;72.73;101686.34;5027933;28;20397;-42
2021/10/27 08:34:22;;;;;;;4.43;3.75;;;;;;;9.28;72.84;101688.06;5030863;28;20017;-42
2021/10/27 08:36:36;;;;;;;;;;;;;;;9.32;72.82;101685.50;5032889;28;20056;-42
2021/10/27 08:39:04;;;;;;;4.18;3.78;;;;;;;9.30;72.67;101689.00;5027108;28;19913;-42
2021/10/27 08:41:32;;;;;;;5.70;3.80;;;;;;;9.29;72.76;101685.47;5021585;28;20067;-42
2021/10/27 08:43:58;;;;;;;8.73;4.15;;;;;;;9.30;72.93;101687.22;5033107;28;20033;-42
2021/10/27 08:46:25;;;;;;;5.75;4.07;;;;;;;9.30;72.89;101695.13;5030870;28;20033;-42
2021/10/27 08:48:51;;;;;;;3.80;3.50;;;;;;;9.32;72.92;101685.50;5031443;28;20029;-42
2021/10/27 08:51:17;;;;;;;5.72;4.03;;;;;;;9.31;72.83;101686.34;5031505;28;20441;-42
2021/10/27 08:53:43;;;;;;;5.35;3.95;;;;;;;9.30;72.98;101684.59;5031414;28;20477;-42
2021/10/27 08:56:10;;;;;;;4.57;3.90;;;;;;;9.32;72.97;101681.97;5032642;28;20032;-42
2021/10/27 08:58:40;;;;;;;4.00;3.60;;;;;;;9.31;72.99;101688.97;5033034;28;20026;-42
2021/10/27 09:03:49;;;;;;;5.95;4.30;;;;;;;9.33;72.96;101676.72;5032404;28;20025;-42
2021/10/27 09:06:29;;;;;;;4.85;3.83;;;;;;;9.34;72.95;101669.72;5030305;28;20496;-43
2021/10/27 09:09:21;;;;;;;4.57;3.53;;;;;;;9.34;73.20;101673.22;5032467;28;20056;-43
2021/10/27 09:34:26;;;;;;;3.30;2.97;;;;;;;9.39;73.61;101665.38;5030703;28;20147;-42
2021/10/27 09:37:16;;;;;;;4.70;3.38;;;;;;;9.41;73.36;101671.56;5032058;28;20026;-43
2021/10/27 10:04:25;;;;;;;4.28;3.80;;;;;;;9.49;73.70;101685.72;5012213;28;20053;-42
2021/10/27 10:06:57;;;;;;;3.40;3.10;;;;;;;9.51;73.78;101691.00;5025845;28;20116;-42
2021/10/27 10:09:23;;;;;;;4.03;3.33;;;;;;;9.52;73.93;101686.59;5028961;28;20068;-43
2021/10/27 10:11:49;;;;;;;4.75;3.97;;;;;;;9.51;73.93;101683.09;5027461;28;20056;-41
2021/10/27 10:14:15;;;;;;;5.32;3.78;;;;;;;9.53;74.02;101678.72;5027805;28;20033;-42
2021/10/27 10:16:43;;;;;;;3.78;3.47;;;;;;;9.53;73.97;101683.97;5029070;28;20052;-42
2021/10/27 10:19:11;;;;;;;4.80;3.63;;;;;;;9.53;73.81;101686.63;5029198;28;20140;-41
2021/10/27 10:21:40;;;;;;;4.28;3.35;;;;;;;9.54;74.02;101680.47;5027283;28;20173;-41
2021/10/27 10:24:25;;;;;;;3.38;3.05;;;;;;;9.55;74.01;101676.09;5028919;28;20029;-41
2021/10/27 10:26:52;;;;;;;4.72;3.75;;;;;;;9.56;73.65;101677.84;5028309;28;20025;-41
2021/10/27 10:29:37;;;;;;;4.38;3.50;;;;;;;9.55;73.92;101677.00;5027664;28;20132;-42
2021/10/27 10:32:21;;;;;;;5.63;3.70;;;;;;;9.56;73.96;101678.75;5029189;28;20547;-41
2021/10/27 10:34:51;;;;;;;3.95;3.55;;;;;;;9.56;73.97;101684.03;5028281;28;20049;-42
2021/10/27 10:37:34;;;;;;;3.75;3.40;;;;;;;9.57;73.86;101684.91;5029994;28;20029;-42
2021/10/27 10:40:24;;;;;;;3.20;2.90;;;;;;;9.58;73.97;101677.03;5028352;28;20042;-42
2021/10/27 10:45:33;;;;;;;5.45;3.30;;;;;;;9.58;74.06;101686.69;5026974;28;20037;-42
2021/10/27 10:57:12;;;;;;;4.45;4.00;;;;;;;9.60;74.18;101680.56;5021092;28;20163;-42
2021/10/27 11:38:19;;;;;;;5.00;3.60;;;;;;;9.69;74.61;101663.06;5030566;28;20078;-41
2021/10/27 11:40:47;;;;;;;6.00;2.95;;;;;;;9.69;74.42;101657.81;5034579;28;20029;-42
2021/10/27 11:48:18;;;;;;;3.25;2.70;;;;;;;9.69;74.18;101650.81;5032293;28;20034;-42
2021/10/27 11:50:44;;;;;;;3.25;2.97;;;;;;;9.71;74.30;101653.44;5032560;28;20026;-41
2021/10/27 11:53:26;;;;;;;3.40;3.08;;;;;;;9.71;74.22;101650.81;5016327;28;20026;-41
2021/10/27 11:55:53;;;;;;;3.30;3.00;;;;;;;9.71;74.28;101648.19;5034101;28;20029;-43
2021/10/27 11:58:19;;;;;;;3.20;2.90;;;;;;;9.71;74.22;101646.41;5033941;28;20087;-41
2021/10/27 12:00:48;;;;;;;3.25;2.95;;;;;;;9.72;74.16;101642.03;5032607;28;20022;-42
2021/10/27 12:03:17;;;;;;;4.38;3.00;;;;;;;9.72;74.30;101636.78;5032478;28;20017;-41
2021/10/27 12:05:53;;;;;;;3.35;3.05;;;;;;;9.71;74.35;101635.00;5027771;28;20037;-41
2021/10/27 12:08:38;;;;;;;2.92;2.63;;;;;;;9.73;74.48;101634.16;5015070;28;20024;-41
2021/10/27 12:11:12;;;;;;;3.03;2.60;;;;;;;9.74;74.74;101632.41;5033868;28;20025;-42
2021/10/27 12:13:54;;;;;;;3.65;3.05;;;;;;;9.73;74.56;101631.53;5033954;28;20029;-41
2021/10/27 12:19:24;;;;;;;3.30;2.50;;;;;;;9.74;74.70;101630.66;5033751;28;20035;-41
2021/10/27 12:22:00;;;;;;;5.00;2.75;;;;;;;9.74;74.36;101629.78;5032763;28;20025;-42
2021/10/27 12:24:31;;;;;;;3.63;2.70;;;;;;;9.74;74.70;101625.38;5024358;28;20430;-43
2021/10/27 12:27:04;;;;;;;3.38;2.92;;;;;;;9.76;74.82;101617.50;5032623;28;20029;-42
2021/10/27 12:29:31;;;;;;;5.47;2.95;;;;;;;9.75;74.79;101619.25;5032891;28;20128;-42
2021/10/27 12:32:08;;;;;;;2.97;2.50;;;;;;;9.77;74.60;101623.66;5032084;28;20112;-42
2021/10/27 12:34:55;;;;;;;3.75;2.97;;;;;;;9.77;74.55;101621.00;5032824;28;20110;-42
2021/10/27 12:37:27;;;;;;;3.38;3.08;;;;;;;9.78;74.70;101625.41;5033144;28;20448;-42
2021/10/27 12:39:53;;;;;;;2.80;2.60;;;;;;;9.78;74.63;101623.66;5032736;28;20029;-42
2021/10/27 12:42:19;;;;;;;2.83;2.63;;;;;;;9.78;74.63;101621.03;5031586;28;20026;-42
2021/10/27 12:44:47;;;;;;;3.35;3.05;;;;;;;9.79;74.71;101628.06;5033023;28;20034;-42
2021/10/27 12:47:14;;;;;;;3.53;2.58;;;;;;;9.79;74.66;101628.06;5031526;28;20025;-42
2021/10/27 12:49:45;;;;;;;3.90;2.83;;;;;;;9.80;74.81;101624.53;5033136;28;20494;-42
2021/10/27 12:52:29;;;;;;;;;;;;;;;9.82;74.40;101628.09;5032345;28;20044;-42
2021/10/27 12:55:09;;;;;;;2.90;2.70;;;;;;;9.82;74.85;101624.56;5029428;28;19916;-42
2021/10/27 12:58:05;;;;;;;3.70;2.63;;;;;;;9.80;74.95;101627.19;5031790;28;20032;-43
2021/10/27 13:00:52;;;;;;;2.60;2.40;;;;;;;9.82;74.80;101617.56;5024190;28;20084;-42
2021/10/27 13:08:58;;;;;;;3.35;2.58;;;;;;;9.83;74.82;101618.41;5030418;28;20053;-43
2021/10/27 13:11:49;;;;;;;3.22;2.92;;;;;;;9.83;74.69;101624.59;5030552;28;20037;-42
2021/10/27 13:14:30;;;;;;;3.10;2.80;;;;;;;9.85;74.80;101616.69;5031275;28;20029;-42
2021/10/27 13:29:53;;;;;;;3.08;2.78;;;;;;;9.89;74.98;101613.22;5024299;28;20476;-42
2021/10/27 13:32:21;;;;;;;3.85;2.92;;;;;;;9.88;74.79;101614.97;5016536;28;20034;-42
2021/10/27 13:34:47;;;;;;;2.60;2.40;;;;;;;9.87;74.86;101615.84;5024968;28;20021;-42
2021/10/27 13:37:13;;;;;;;3.50;3.00;;;;;;;9.89;74.98;101607.94;5028814;28;20080;-43
2021/10/27 13:39:38;;;;;;;2.90;2.63;;;;;;;9.90;75.03;101611.47;5025790;28;20040;-42
2021/10/27 13:42:16;;;;;;;4.75;2.70;;;;;;;9.90;75.11;101608.84;5023408;28;20029;-42
2021/10/27 13:44:56;;;;;;;3.70;3.05;;;;;;;9.90;75.02;101603.56;5019304;28;20092;-42
2021/10/27 13:47:36;;;;;;;2.83;2.63;;;;;;;9.91;74.83;101606.22;5017914;28;20457;-42
2021/10/27 13:58:36;;;;;;;3.92;2.60;;;;;;;9.93;74.95;101601.84;5025522;28;20500;-42
2021/10/27 14:06:53;;;;;;;7.60;2.80;;;;;;;10.05;76.00;101610.72;5039903;28;20083;-42
2021/10/27 14:09:28;;;;;;;4.18;3.13;;;;;;;10.13;77.36;101602.00;5025716;28;20045;-41
2021/10/27 14:12:03;;;;;;;3.97;2.80;;;;;;;10.19;78.80;101598.53;5033392;28;20126;-43
2021/10/27 14:14:39;;;;;;;4.35;3.13;;;;;;;10.25;79.43;101595.06;5033475;28;20061;-41
2021/10/27 14:17:28;;;;;;;3.50;3.20;;;;;;;10.27;79.45;101591.56;5029779;28;20033;-41
2021/10/27 14:20:16;;;;;;;5.88;3.70;;;;;;;10.34;79.94;101591.59;5025579;28;20041;-41
2021/10/27 15:25:23;;;;;;;3.00;2.70;;;;;;;10.35;76.23;101594.25;5034686;28;20021;-42
2021/10/27 15:28:05;;;;;;;3.53;2.90;;;;;;;10.34;76.14;101595.09;5034482;28;20481;-42